Time;durP1;ratioP1;P1;durP2;ratioP2;P2;SDS_P1;SDS_P2;PMS_P1;PMS_P2;Temp;Humidity;BMP_temperature;BMP_pressure;BME280_temperature;BME280_humidity;BME280_pressure;Samples;Min_cycle;Max_cycle;Signal;HPM_P1;HPM_P2
2022/06/22 00:01:45;;;;;;;20.38;19.02;;;13.30;99.90;;;;;;5015332;28;20038;-78
2022/06/22 00:04:20;;;;;;;20.65;19.35;;;13.30;99.90;;;;;;5025227;28;20045;-77
2022/06/22 00:06:54;;;;;;;19.90;18.40;;;13.40;99.90;;;;;;5043712;28;20103;-77
2022/06/22 00:09:29;;;;;;;20.55;19.05;;;13.50;99.90;;;;;;5043737;28;20476;-77
2022/06/22 00:11:57;;;;;;;20.85;19.20;;;13.40;99.90;;;;;;5043358;28;20706;-77
2022/06/22 00:14:30;;;;;;;19.83;18.50;;;13.40;99.90;;;;;;5038661;28;20050;-77
2022/06/22 00:16:57;;;;;;;21.10;19.70;;;13.40;99.90;;;;;;5029307;28;20049;-77
2022/06/22 00:19:35;;;;;;;21.63;19.95;;;13.40;99.90;;;;;;5028129;28;20720;-76
2022/06/22 00:22:02;;;;;;;21.33;19.77;;;13.40;99.90;;;;;;5042525;28;20049;-76
2022/06/22 00:24:36;;;;;;;21.60;20.30;;;13.50;99.90;;;;;;5036388;28;20096;-77
2022/06/22 00:27:14;;;;;;;21.83;20.40;;;13.50;99.90;;;;;;5043226;28;20053;-77
2022/06/22 00:29:45;;;;;;;21.80;20.40;;;13.50;99.90;;;;;;5021306;28;20099;-77
2022/06/22 00:32:24;;;;;;;22.50;20.80;;;13.60;99.90;;;;;;5020850;28;20134;-77
2022/06/22 00:34:51;;;;;;;22.00;20.50;;;13.70;99.90;;;;;;5042918;28;20289;-76
2022/06/22 00:37:30;;;;;;;21.17;19.63;;;13.70;99.90;;;;;;5043342;28;20049;-77
2022/06/22 00:40:13;;;;;;;21.10;19.63;;;13.80;99.90;;;;;;5012433;28;20116;-77
2022/06/22 00:42:50;;;;;;;21.63;20.23;;;13.80;99.90;;;;;;5022024;28;20091;-77
2022/06/22 00:45:25;;;;;;;20.85;19.52;;;13.80;99.90;;;;;;5003378;28;20048;-77
2022/06/22 00:47:56;;;;;;;;;;;13.80;99.90;;;;;;5043433;28;20052;-76
2022/06/22 00:50:36;;;;;;;20.88;19.60;;;13.80;99.90;;;;;;5047307;28;20015;-76
2022/06/22 00:53:16;;;;;;;21.52;19.80;;;13.90;99.90;;;;;;5029530;28;20053;-77
2022/06/22 00:56:11;;;;;;;21.52;19.77;;;13.90;99.90;;;;;;5030329;28;20091;-77
2022/06/22 00:58:53;;;;;;;21.70;20.20;;;13.90;99.90;;;;;;5000590;28;20525;-76
2022/06/22 01:02:01;;;;;;;21.60;20.15;;;13.80;99.90;;;;;;5009309;28;20083;-77
2022/06/22 01:04:52;;;;;;;20.83;19.35;;;13.70;99.90;;;;;;4952365;28;20051;-75
2022/06/22 01:07:55;;;;;;;21.15;19.50;;;13.70;99.90;;;;;;4984969;28;20075;-76
2022/06/22 01:10:33;;;;;;;20.42;19.13;;;13.70;99.90;;;;;;5030629;28;20041;-76
2022/06/22 01:13:30;;;;;;;20.90;19.40;;;13.80;99.90;;;;;;5028115;28;20088;-76
2022/06/22 01:16:00;;;;;;;19.73;18.33;;;13.80;99.90;;;;;;4997839;28;20046;-76
2022/06/22 01:18:39;;;;;;;20.45;18.77;;;13.70;99.90;;;;;;5029002;28;20080;-75
2022/06/22 01:21:24;;;;;;;20.83;19.48;;;13.70;99.90;;;;;;5027430;28;20117;-76
2022/06/22 01:24:29;;;;;;;20.42;19.02;;;13.80;99.90;;;;;;5018676;28;20052;-77
2022/06/22 01:27:35;;;;;;;21.05;19.48;;;13.80;99.90;;;;;;5046033;28;20068;-76
2022/06/22 01:30:20;;;;;;;20.98;19.45;;;13.90;99.90;;;;;;5041983;28;20123;-76
2022/06/22 01:32:48;;;;;;;20.85;19.60;;;13.80;99.90;;;;;;5039742;28;20052;-76
2022/06/22 01:35:25;;;;;;;22.60;20.75;;;13.80;99.90;;;;;;5045926;28;20075;-76
2022/06/22 01:37:53;;;;;;;22.40;20.58;;;13.90;99.90;;;;;;5010006;28;20079;-76
2022/06/22 01:40:33;;;;;;;22.58;20.90;;;14.00;99.90;;;;;;5010127;28;20728;-76
2022/06/22 01:43:14;;;;;;;21.90;20.10;;;14.00;99.90;;;;;;5028947;28;20055;-75
2022/06/22 01:45:59;;;;;;;22.55;21.02;;;14.20;99.90;;;;;;5024514;28;20045;-76
2022/06/22 01:48:43;;;;;;;21.92;20.27;;;14.20;99.90;;;;;;5045284;28;20081;-76
2022/06/22 01:51:33;;;;;;;22.70;21.05;;;14.20;99.90;;;;;;5028528;28;20052;-76
2022/06/22 01:54:10;;;;;;;21.52;19.92;;;14.10;99.90;;;;;;5039598;28;20053;-76
2022/06/22 01:57:06;;;;;;;22.00;20.45;;;14.10;99.90;;;;;;5007370;28;20037;-76
2022/06/22 01:59:43;;;;;;;21.45;20.10;;;14.00;99.90;;;;;;5002645;28;20049;-76
2022/06/22 02:02:19;;;;;;;23.65;22.08;;;14.00;99.90;;;;;;5023545;28;20569;-76
2022/06/22 02:04:56;;;;;;;22.40;20.85;;;14.10;99.90;;;;;;5015051;28;20655;-76
2022/06/22 02:07:44;;;;;;;23.98;22.00;;;14.10;99.90;;;;;;5029195;28;20052;-76
2022/06/22 02:10:33;;;;;;;22.10;20.67;;;14.20;99.90;;;;;;5012479;28;20495;-76
2022/06/22 02:13:16;;;;;;;23.75;21.73;;;14.10;99.90;;;;;;5045925;28;20060;-76
2022/06/22 02:15:58;;;;;;;22.98;21.33;;;14.20;99.90;;;;;;5019596;28;20768;-76
2022/06/22 02:18:31;;;;;;;23.15;21.45;;;14.40;99.90;;;;;;5028897;28;20132;-76
2022/06/22 02:21:00;;;;;;;23.63;21.85;;;14.50;99.90;;;;;;5008738;28;20049;-76
2022/06/22 02:23:32;;;;;;;23.38;21.67;;;14.70;99.90;;;;;;5035206;28;20049;-76
2022/06/22 02:26:02;;;;;;;23.98;22.30;;;14.80;99.90;;;;;;5028734;28;20140;-76
2022/06/22 02:28:29;;;;;;;23.05;21.45;;;14.70;99.90;;;;;;5026916;28;20044;-76
2022/06/22 02:30:58;;;;;;;23.77;21.83;;;14.70;99.90;;;;;;5022406;28;20049;-76
2022/06/22 02:33:25;;;;;;;23.23;21.52;;;14.60;99.90;;;;;;5044749;28;20646;-76
2022/06/22 02:35:53;;;;;;;22.85;21.35;;;14.60;99.90;;;;;;5028257;28;20460;-75
2022/06/22 02:38:21;;;;;;;24.55;22.77;;;14.50;99.90;;;;;;5046907;28;20049;-76
2022/06/22 02:46:30;;;;;;;23.67;22.13;;;14.20;99.90;;;;;;5036829;28;20040;-77
2022/06/22 02:49:04;;;;;;;25.00;23.20;;;14.00;99.90;;;;;;5028913;28;20045;-77
2022/06/22 02:51:41;;;;;;;23.90;22.25;;;13.90;99.90;;;;;;5027240;28;20049;-75
2022/06/22 02:54:21;;;;;;;23.27;21.60;;;13.90;99.90;;;;;;5036683;28;20041;-77
2022/06/22 02:56:56;;;;;;;24.48;22.30;;;13.80;99.90;;;;;;5027521;28;20037;-74
2022/06/22 02:59:23;;;;;;;23.90;22.00;;;13.80;99.90;;;;;;5031099;28;20449;-75
2022/06/22 03:01:50;;;;;;;23.75;22.05;;;13.70;99.90;;;;;;5015941;28;20041;-74
2022/06/22 03:04:17;;;;;;;23.67;21.92;;;13.70;99.90;;;;;;5026067;28;20054;-75
2022/06/22 03:06:50;;;;;;;23.35;21.45;;;13.70;99.90;;;;;;5041082;28;20763;-75
2022/06/22 03:09:18;;;;;;;23.52;21.83;;;13.60;99.90;;;;;;5046603;28;20052;-74
2022/06/22 03:11:50;;;;;;;24.52;22.83;;;13.60;99.90;;;;;;5045461;28;20056;-75
2022/06/22 03:14:23;;;;;;;23.38;21.80;;;13.60;99.90;;;;;;5005894;28;20511;-75
2022/06/22 03:17:04;;;;;;;24.30;22.58;;;13.50;99.90;;;;;;5040845;28;20052;-75
2022/06/22 03:19:43;;;;;;;23.85;22.15;;;13.40;99.90;;;;;;5045757;28;20041;-75
2022/06/22 03:22:20;;;;;;;22.58;20.98;;;13.30;99.90;;;;;;5045131;28;20135;-75
2022/06/22 03:25:17;;;;;;;23.27;21.25;;;13.20;99.90;;;;;;5033755;28;20132;-75
2022/06/22 03:27:47;;;;;;;22.83;21.15;;;13.10;99.90;;;;;;5018924;28;20045;-75
2022/06/22 03:30:19;;;;;;;25.42;23.55;;;13.10;99.90;;;;;;5016011;28;20053;-75
2022/06/22 03:32:55;;;;;;;25.83;23.50;;;12.80;99.90;;;;;;5048553;28;20386;-75
2022/06/22 03:35:31;;;;;;;24.85;22.88;;;12.70;99.90;;;;;;5043374;28;20472;-75
2022/06/22 03:38:09;;;;;;;25.00;22.80;;;12.60;99.90;;;;;;5046251;28;20049;-75
2022/06/22 03:41:02;;;;;;;23.45;21.55;;;12.50;99.90;;;;;;5044089;28;20040;-75
2022/06/22 03:43:34;;;;;;;22.55;20.75;;;12.40;99.90;;;;;;5056686;28;20053;-75
2022/06/22 03:46:08;;;;;;;22.20;20.70;;;12.40;99.90;;;;;;5027410;28;20049;-74
2022/06/22 03:48:42;;;;;;;23.00;21.23;;;12.50;99.90;;;;;;5028144;28;20106;-75
2022/06/22 03:51:17;;;;;;;21.40;20.03;;;12.40;99.90;;;;;;5044310;28;20083;-77
2022/06/22 03:54:05;;;;;;;23.30;21.15;;;12.30;99.90;;;;;;5037407;28;20627;-74
2022/06/22 03:56:38;;;;;;;21.27;19.85;;;12.30;99.90;;;;;;5043377;28;20665;-77
2022/06/22 03:59:06;;;;;;;22.17;20.73;;;12.20;99.90;;;;;;5026297;28;20057;-77
2022/06/22 04:01:34;;;;;;;22.17;20.67;;;12.00;99.90;;;;;;5039300;28;20501;-76
2022/06/22 04:04:01;;;;;;;21.55;20.02;;;11.90;99.90;;;;;;5035954;28;20076;-75
2022/06/22 04:06:33;;;;;;;21.70;19.90;;;12.00;99.90;;;;;;5043527;28;20501;-76
2022/06/22 04:09:03;;;;;;;22.80;21.08;;;12.00;99.90;;;;;;5040804;28;20060;-76
2022/06/22 04:11:41;;;;;;;22.85;21.08;;;12.00;99.90;;;;;;5043624;28;20045;-75
2022/06/22 04:14:16;;;;;;;23.70;21.85;;;12.10;99.90;;;;;;5043136;28;20052;-76
2022/06/22 04:16:48;;;;;;;22.00;20.40;;;12.00;99.90;;;;;;5025717;28;20095;-75
2022/06/22 04:19:26;;;;;;;22.45;20.80;;;12.00;99.90;;;;;;5044172;28;20043;-74
2022/06/22 04:22:00;;;;;;;21.58;20.00;;;12.00;99.90;;;;;;5042432;28;20053;-76
2022/06/22 04:24:31;;;;;;;21.63;20.00;;;12.00;99.90;;;;;;5010381;28;20053;-77
2022/06/22 04:27:22;;;;;;;21.88;20.33;;;12.00;99.90;;;;;;5023978;28;20053;-75
2022/06/22 04:30:04;;;;;;;22.08;20.45;;;12.00;99.90;;;;;;5020823;28;20068;-77
2022/06/22 04:32:39;;;;;;;22.02;20.48;;;12.20;99.90;;;;;;5036675;28;20041;-75
2022/06/22 04:35:14;;;;;;;23.70;21.92;;;12.60;99.90;;;;;;5006919;28;20825;-77
2022/06/22 04:38:17;;;;;;;24.52;22.83;;;13.00;99.90;;;;;;5024656;28;20103;-75
2022/06/22 04:41:04;;;;;;;24.05;22.48;;;13.50;99.90;;;;;;4972343;28;20093;-76
2022/06/22 04:43:32;;;;;;;22.88;21.42;;;14.00;99.90;;;;;;5025988;28;20741;-75
2022/06/22 04:45:59;;;;;;;24.27;22.45;;;14.30;99.90;;;;;;5026168;28;20510;-75
2022/06/22 04:48:30;;;;;;;25.83;23.77;;;14.70;99.90;;;;;;5043470;28;20075;-74
2022/06/22 04:51:01;;;;;;;24.38;22.65;;;15.00;99.90;;;;;;5024222;28;20053;-75
2022/06/22 04:53:28;;;;;;;24.88;23.17;;;15.70;99.90;;;;;;5036540;28;20394;-76
2022/06/22 04:55:59;;;;;;;24.77;23.00;;;16.20;99.90;;;;;;5024979;28;20080;-77
2022/06/22 04:58:39;;;;;;;25.85;24.08;;;16.30;99.90;;;;;;5022914;28;20256;-77
2022/06/22 05:01:10;;;;;;;25.67;23.88;;;16.30;99.90;;;;;;5016925;28;20058;-74
2022/06/22 05:03:37;;;;;;;26.10;24.33;;;15.80;99.90;;;;;;5031264;28;20060;-75
2022/06/22 05:06:24;;;;;;;26.10;24.15;;;15.60;99.90;;;;;;5024205;28;20094;-77
2022/06/22 05:08:57;;;;;;;25.50;23.45;;;15.60;99.90;;;;;;5025516;28;20057;-75
2022/06/22 05:11:53;;;;;;;25.77;23.73;;;15.90;99.90;;;;;;5042810;28;20083;-77
2022/06/22 05:14:26;;;;;;;;;;;16.00;99.90;;;;;;5016950;28;20052;-74
2022/06/22 05:16:57;;;;;;;25.13;23.30;;;16.30;99.90;;;;;;5024904;28;19932;-75
2022/06/22 05:19:30;;;;;;;26.63;24.30;;;16.90;99.90;;;;;;5028618;28;20049;-75
2022/06/22 05:21:58;;;;;;;27.10;24.77;;;17.10;99.90;;;;;;5022752;28;20095;-74
2022/06/22 05:24:27;;;;;;;25.25;23.55;;;17.10;99.90;;;;;;5032632;28;20485;-75
2022/06/22 05:26:57;;;;;;;25.80;23.88;;;16.80;99.90;;;;;;5024810;28;20127;-74
2022/06/22 05:29:36;;;;;;;25.88;23.88;;;16.70;99.90;;;;;;5040081;28;20115;-74
2022/06/22 05:32:10;;;;;;;25.98;24.15;;;17.00;99.90;;;;;;5033618;28;20069;-75
2022/06/22 05:34:40;;;;;;;24.75;23.15;;;17.40;99.90;;;;;;5027420;28;20056;-74
2022/06/22 05:37:28;;;;;;;25.98;23.75;;;17.60;99.90;;;;;;5044314;28;20045;-74
2022/06/22 05:39:56;;;;;;;25.02;23.30;;;17.50;99.90;;;;;;5036626;28;20054;-76
2022/06/22 05:42:24;;;;;;;24.83;22.75;;;17.30;99.90;;;;;;5026105;28;20225;-76
2022/06/22 05:44:53;;;;;;;24.63;22.83;;;17.60;99.90;;;;;;5026632;28;20144;-76
2022/06/22 05:47:31;;;;;;;26.40;24.45;;;18.10;99.90;;;;;;5009180;28;20088;-76
2022/06/22 05:50:26;;;;;;;26.33;24.45;;;18.60;99.90;;;;;;5027084;28;20049;-77
2022/06/22 05:53:03;;;;;;;29.27;27.07;;;18.50;99.90;;;;;;5025882;28;20087;-77
2022/06/22 05:55:58;;;;;;;32.55;29.55;;;18.80;99.90;;;;;;5032445;28;20132;-75
2022/06/22 05:58:48;;;;;;;36.33;32.90;;;18.70;99.90;;;;;;5031288;28;20548;-75
2022/06/22 06:01:36;;;;;;;32.72;29.70;;;18.40;99.90;;;;;;5041567;28;20037;-76
2022/06/22 06:04:30;;;;;;;24.05;22.65;;;18.50;99.90;;;;;;5020580;28;20052;-76
2022/06/22 06:07:19;;;;;;;24.70;22.85;;;18.70;99.90;;;;;;5018506;28;20052;-76
2022/06/22 06:09:46;;;;;;;23.98;22.35;;;18.80;99.90;;;;;;5047413;28;20095;-77
2022/06/22 06:12:32;;;;;;;24.90;23.20;;;19.10;99.90;;;;;;5029889;28;20179;-77
2022/06/22 06:15:02;;;;;;;23.70;22.20;;;19.30;99.90;;;;;;5046881;28;20466;-76
2022/06/22 06:17:38;;;;;;;24.80;22.90;;;18.90;99.90;;;;;;5045382;28;20045;-77
2022/06/22 06:20:15;;;;;;;23.88;22.02;;;18.80;99.90;;;;;;5030803;28;20103;-77
2022/06/22 06:22:42;;;;;;;25.08;23.02;;;19.00;99.90;;;;;;5039071;28;20037;-75
2022/06/22 06:28:11;;;;;;;23.65;22.10;;;19.40;99.90;;;;;;5025590;28;20064;-75
2022/06/22 06:30:42;;;;;;;24.98;22.90;;;19.40;99.90;;;;;;5018701;28;20044;-76
2022/06/22 06:33:34;;;;;;;24.55;23.00;;;19.10;99.90;;;;;;5027746;28;20064;-75
2022/06/22 06:36:26;;;;;;;24.83;23.05;;;19.00;99.90;;;;;;5028244;28;20069;-75
2022/06/22 06:39:12;;;;;;;25.10;23.20;;;19.60;99.90;;;;;;5026571;28;20068;-75
2022/06/22 06:42:03;;;;;;;24.75;23.08;;;20.10;99.90;;;;;;5027720;28;20049;-75
2022/06/22 06:44:38;;;;;;;24.98;23.42;;;20.60;99.90;;;;;;5045371;28;20053;-75
2022/06/22 06:47:13;;;;;;;24.50;22.70;;;20.50;99.90;;;;;;5028113;28;20541;-76
2022/06/22 06:50:03;;;;;;;24.70;23.10;;;21.10;99.90;;;;;;5025453;28;20059;-75
2022/06/22 06:52:48;;;;;;;24.48;22.92;;;21.60;99.90;;;;;;5012796;28;20048;-76
2022/06/22 06:55:41;;;;;;;25.30;23.50;;;21.60;99.90;;;;;;5040144;28;20049;-75
2022/06/22 06:58:24;;;;;;;25.15;23.33;;;21.20;99.90;;;;;;5026226;28;20060;-75
2022/06/22 07:00:51;;;;;;;25.42;23.75;;;20.80;99.90;;;;;;5022195;28;20644;-75
2022/06/22 07:03:26;;;;;;;25.58;23.90;;;20.90;99.90;;;;;;5038267;28;20045;-75
2022/06/22 07:05:53;;;;;;;26.30;24.45;;;21.30;99.90;;;;;;5006690;28;20052;-76
2022/06/22 07:08:39;;;;;;;26.13;24.45;;;21.80;99.90;;;;;;5025585;28;20053;-76
2022/06/22 07:11:13;;;;;;;26.65;24.85;;;22.20;99.90;;;;;;5043076;28;20658;-76
2022/06/22 07:13:43;;;;;;;25.77;24.13;;;21.80;99.90;;;;;;5044337;28;20044;-75
2022/06/22 07:16:16;;;;;;;23.85;22.52;;;21.40;99.90;;;;;;5044882;28;20798;-76
2022/06/22 07:19:01;;;;;;;26.25;24.30;;;21.50;99.90;;;;;;5043006;28;20099;-76
2022/06/22 07:21:54;;;;;;;24.77;23.10;;;21.40;99.90;;;;;;5043750;28;20124;-76
2022/06/22 07:24:30;;;;;;;24.95;23.42;;;21.60;99.90;;;;;;5023138;28;20445;-76
2022/06/22 07:27:24;;;;;;;25.02;23.05;;;21.50;99.90;;;;;;5023675;28;20107;-76
2022/06/22 07:30:09;;;;;;;25.95;24.15;;;21.80;99.90;;;;;;5033951;28;20482;-76
2022/06/22 07:32:51;;;;;;;24.70;23.15;;;21.70;99.90;;;;;;5038000;28;20453;-76
2022/06/22 07:35:28;;;;;;;24.98;23.27;;;21.90;99.90;;;;;;5023457;28;20048;-75
2022/06/22 07:38:03;;;;;;;26.10;24.25;;;21.70;99.90;;;;;;5045147;28;20080;-76
2022/06/22 07:40:31;;;;;;;24.90;23.20;;;21.30;99.90;;;;;;5022960;28;20096;-76
2022/06/22 07:42:59;;;;;;;25.55;23.63;;;21.50;99.90;;;;;;5043884;28;20584;-75
2022/06/22 07:45:28;;;;;;;25.60;23.88;;;21.40;99.90;;;;;;5044539;28;20095;-76
2022/06/22 07:48:01;;;;;;;25.50;23.95;;;21.90;99.90;;;;;;5026768;28;20106;-76
2022/06/22 07:50:39;;;;;;;26.90;25.02;;;21.30;99.90;;;;;;5026155;28;20114;-75
2022/06/22 07:53:25;;;;;;;26.13;24.10;;;21.50;99.90;;;;;;5021900;28;20502;-75
2022/06/22 07:56:09;;;;;;;26.90;25.10;;;21.60;99.90;;;;;;5042251;28;20052;-75
2022/06/22 07:58:48;;;;;;;27.17;25.13;;;22.10;99.90;;;;;;5019882;28;20049;-75
2022/06/22 08:01:30;;;;;;;25.73;24.02;;;21.70;99.90;;;;;;5017738;28;20037;-75
2022/06/22 08:04:02;;;;;;;25.58;23.83;;;21.60;99.90;;;;;;5031154;28;20140;-76
2022/06/22 08:06:36;;;;;;;25.90;24.15;;;21.70;99.90;;;;;;5007210;28;20421;-76
2022/06/22 08:09:12;;;;;;;25.88;24.08;;;22.80;99.90;;;;;;5007050;28;20057;-76
2022/06/22 08:12:01;;;;;;;25.60;23.75;;;23.30;99.90;;;;;;5005769;28;20057;-75
2022/06/22 08:14:40;;;;;;;26.20;24.25;;;23.30;99.90;;;;;;5022438;28;20441;-75
2022/06/22 08:17:14;;;;;;;26.60;24.80;;;23.40;99.90;;;;;;5026581;28;20448;-76
2022/06/22 08:19:42;;;;;;;26.10;24.25;;;23.70;99.90;;;;;;5044674;28;20482;-75
2022/06/22 08:22:11;;;;;;;26.63;24.92;;;22.80;99.90;;;;;;5043302;28;20218;-74
2022/06/22 08:24:44;;;;;;;25.98;24.42;;;21.90;99.90;;;;;;5016644;28;20310;-75
2022/06/22 08:27:18;;;;;;;26.80;25.20;;;22.50;99.90;;;;;;5024820;28;20047;-76
2022/06/22 08:29:48;;;;;;;26.55;24.98;;;23.40;99.90;;;;;;5040444;28;20075;-75
2022/06/22 08:32:18;;;;;;;26.63;25.02;;;23.70;99.90;;;;;;5016980;28;20768;-75
2022/06/22 08:34:54;;;;;;;27.23;25.33;;;24.40;99.90;;;;;;5029993;28;20134;-77
2022/06/22 08:37:46;;;;;;;28.05;26.00;;;24.70;99.90;;;;;;5006010;28;20042;-75
2022/06/22 08:40:37;;;;;;;27.40;25.58;;;24.30;99.90;;;;;;5015758;28;20049;-77
2022/06/22 08:43:23;;;;;;;27.08;24.98;;;24.20;99.90;;;;;;5022543;28;20072;-76
2022/06/22 08:46:08;;;;;;;26.88;25.20;;;24.60;99.90;;;;;;5029286;28;20049;-76
2022/06/22 08:48:44;;;;;;;;;;;24.90;99.90;;;;;;5032548;28;20132;-76
2022/06/22 08:51:31;;;;;;;;;;;25.00;99.90;;;;;;5032566;28;20388;-76
2022/06/22 08:54:16;;;;;;;28.40;26.60;;;25.00;99.90;;;;;;5038015;28;19931;-77
2022/06/22 08:57:25;;;;;;;28.25;26.25;;;25.30;99.90;;;;;;5035226;28;20042;-76
2022/06/22 09:00:16;;;;;;;27.70;26.00;;;25.40;99.90;;;;;;5034012;28;20060;-76
2022/06/22 09:02:53;;;;;;;27.67;25.98;;;25.10;99.90;;;;;;5005613;28;20079;-76
2022/06/22 09:05:29;;;;;;;28.48;26.50;;;25.10;99.90;;;;;;5032851;28;20041;-76
2022/06/22 09:08:18;;;;;;;27.58;25.67;;;24.70;99.90;;;;;;5009434;28;20103;-76
2022/06/22 09:11:41;;;;;;;28.10;26.13;;;24.70;99.90;;;;;;5009721;28;20502;-76
2022/06/22 09:14:22;;;;;;;27.98;26.27;;;25.00;99.90;;;;;;4966391;28;20055;-75
2022/06/22 09:17:30;;;;;;;28.25;26.30;;;25.10;99.90;;;;;;4966917;28;20050;-75
2022/06/22 09:20:26;;;;;;;27.92;26.00;;;24.80;99.90;;;;;;5001754;28;20053;-76
2022/06/22 09:22:59;;;;;;;27.88;26.08;;;25.60;99.90;;;;;;5011142;28;20053;-75
2022/06/22 09:25:41;;;;;;;29.40;27.30;;;25.10;99.90;;;;;;5039501;28;20041;-75
2022/06/22 09:28:11;;;;;;;28.73;26.73;;;25.20;99.90;;;;;;5010714;28;20091;-76
2022/06/22 09:30:38;;;;;;;27.65;25.95;;;25.40;99.90;;;;;;5037624;28;20049;-76
2022/06/22 09:33:13;;;;;;;29.52;27.63;;;25.40;99.90;;;;;;5023399;28;20511;-75
2022/06/22 09:36:11;;;;;;;29.67;27.65;;;24.80;99.90;;;;;;5015552;28;20041;-75
2022/06/22 09:39:00;;;;;;;29.33;27.38;;;23.70;99.90;;;;;;5031550;28;20056;-77
2022/06/22 09:41:42;;;;;;;29.10;27.40;;;24.60;99.90;;;;;;5008985;28;20049;-75
2022/06/22 09:44:30;;;;;;;28.17;26.50;;;25.20;99.90;;;;;;5027916;28;20429;-74
2022/06/22 09:47:06;;;;;;;29.95;28.05;;;24.90;99.90;;;;;;5040005;28;20106;-76
2022/06/22 09:49:55;;;;;;;30.58;28.67;;;25.60;99.90;;;;;;5030259;28;20402;-75
2022/06/22 09:52:45;;;;;;;31.15;29.15;;;25.60;99.90;;;;;;5024235;28;20111;-77
2022/06/22 09:58:48;;;;;;;29.73;27.92;;;26.50;99.60;;;;;;5025006;28;20507;-77
2022/06/22 10:01:30;;;;;;;30.63;28.63;;;26.60;99.90;;;;;;5029459;28;20549;-77
2022/06/22 10:03:57;;;;;;;30.98;28.98;;;25.50;99.90;;;;;;5040160;28;20413;-77
2022/06/22 10:06:44;;;;;;;30.83;28.55;;;25.00;99.90;;;;;;5030723;28;20106;-77
2022/06/22 10:09:54;;;;;;;31.05;28.98;;;25.50;99.90;;;;;;5010965;28;20046;-76
2022/06/22 10:12:57;;;;;;;30.30;28.17;;;24.70;99.90;;;;;;5008749;28;20050;-77
2022/06/22 10:15:42;;;;;;;32.80;30.70;;;23.70;99.90;;;;;;5025163;28;20091;-77
2022/06/22 10:18:09;;;;;;;;;;;24.00;99.90;;;;;;5042759;28;20048;-76
2022/06/22 10:21:08;;;;;;;32.67;30.35;;;24.70;99.90;;;;;;5027871;28;19925;-78
2022/06/22 10:24:06;;;;;;;32.03;29.70;;;24.70;99.90;;;;;;5041297;28;20237;-75
2022/06/22 10:26:55;;;;;;;30.98;29.00;;;24.80;99.90;;;;;;5045009;28;20048;-76
2022/06/22 10:29:50;;;;;;;31.05;28.92;;;24.50;99.90;;;;;;5043313;28;20479;-76
2022/06/22 10:32:35;;;;;;;29.30;27.30;;;24.20;99.90;;;;;;5020443;28;20041;-76
2022/06/22 10:35:24;;;;;;;31.27;29.27;;;25.20;99.90;;;;;;5042443;28;20048;-76
2022/06/22 10:38:16;;;;;;;31.50;29.25;;;25.60;99.90;;;;;;5042924;28;20402;-76
2022/06/22 10:47:11;;;;;;;30.23;28.13;;;25.90;99.90;;;;;;5045140;28;20049;-76
2022/06/22 10:49:46;;;;;;;;;;;26.40;99.90;;;;;;5046471;28;20503;-76
2022/06/22 10:52:19;;;;;;;32.20;30.20;;;25.20;99.90;;;;;;5044136;28;19956;-75
2022/06/22 10:55:10;;;;;;;30.80;28.67;;;25.30;99.90;;;;;;5013456;28;20091;-75
2022/06/22 10:57:58;;;;;;;31.47;29.57;;;25.00;99.90;;;;;;5025724;28;20061;-75
2022/06/22 11:00:49;;;;;;;31.73;29.65;;;25.50;99.40;;;;;;5032163;28;20076;-77
2022/06/22 11:03:25;;;;;;;31.58;29.25;;;26.00;99.00;;;;;;5002228;28;20110;-76
2022/06/22 11:06:11;;;;;;;30.58;28.67;;;26.10;99.50;;;;;;5044684;28;20048;-76
2022/06/22 11:08:57;;;;;;;30.35;28.45;;;26.30;99.00;;;;;;5027946;28;20831;-76
2022/06/22 11:11:31;;;;;;;31.02;29.00;;;26.70;97.90;;;;;;5045053;28;20057;-76
2022/06/22 11:14:38;;;;;;;29.33;27.40;;;26.70;97.50;;;;;;5027578;28;20622;-76
2022/06/22 11:17:43;;;;;;;31.20;29.02;;;26.90;97.20;;;;;;4997740;28;20136;-75
2022/06/22 11:20:29;;;;;;;30.95;29.05;;;27.00;97.70;;;;;;5008380;28;20053;-76
2022/06/22 11:23:03;;;;;;;30.00;28.08;;;25.90;98.20;;;;;;5016195;28;20052;-74
2022/06/22 11:32:03;;;;;;;29.02;27.02;;;26.60;99.50;;;;;;5021228;28;20750;-77
2022/06/22 11:35:06;;;;;;;30.33;28.25;;;26.70;98.20;;;;;;5029162;28;20054;-75
2022/06/22 11:37:54;;;;;;;32.72;30.10;;;26.80;97.70;;;;;;4975396;28;20053;-77
2022/06/22 11:40:39;;;;;;;33.25;31.00;;;27.20;97.40;;;;;;5021227;28;20064;-77
2022/06/22 11:43:18;;;;;;;30.75;28.75;;;26.90;96.70;;;;;;5010388;28;20668;-76
2022/06/22 11:46:19;;;;;;;31.50;29.40;;;26.60;96.20;;;;;;5045272;28;20044;-77
2022/06/22 11:49:14;;;;;;;30.58;28.67;;;26.10;97.90;;;;;;5027740;28;20136;-77
2022/06/22 11:52:19;;;;;;;30.92;28.98;;;25.60;99.10;;;;;;5026325;28;20052;-77
2022/06/22 11:55:08;;;;;;;30.80;28.90;;;26.20;97.80;;;;;;5023515;28;20071;-77
2022/06/22 11:57:47;;;;;;;31.92;29.80;;;26.20;98.60;;;;;;5044980;28;20122;-76
2022/06/22 12:00:34;;;;;;;30.42;28.45;;;26.30;98.50;;;;;;5040114;28;20052;-76
2022/06/22 12:03:13;;;;;;;29.25;27.45;;;26.30;97.80;;;;;;5044317;28;20056;-77
2022/06/22 12:06:10;;;;;;;30.00;27.95;;;26.70;98.30;;;;;;5010455;28;20049;-76
2022/06/22 12:08:52;;;;;;;30.15;28.15;;;27.10;98.20;;;;;;5045070;28;20075;-76
2022/06/22 12:11:34;;;;;;;29.38;27.58;;;26.90;97.30;;;;;;5024534;28;20053;-76
2022/06/22 12:17:12;;;;;;;30.42;28.33;;;25.60;97.90;;;;;;5041505;28;20444;-76
2022/06/22 12:20:00;;;;;;;29.20;27.38;;;25.80;97.30;;;;;;5011675;28;20045;-77
2022/06/22 12:22:41;;;;;;;28.90;26.90;;;26.20;97.50;;;;;;5016282;28;20041;-77
2022/06/22 12:25:25;;;;;;;28.52;26.73;;;26.30;95.60;;;;;;5033862;28;20059;-77
2022/06/22 12:28:01;;;;;;;28.75;27.05;;;26.50;97.60;;;;;;5008025;28;20049;-75
2022/06/22 12:30:34;;;;;;;28.80;27.00;;;26.80;97.30;;;;;;5033490;28;20052;-75
2022/06/22 12:33:13;;;;;;;29.10;27.20;;;26.20;95.90;;;;;;5034602;28;20037;-75
2022/06/22 12:35:46;;;;;;;29.45;27.42;;;25.30;97.00;;;;;;5025591;28;20041;-75
2022/06/22 12:38:37;;;;;;;29.50;27.67;;;25.60;98.30;;;;;;5026548;28;20052;-75
2022/06/22 12:42:01;;;;;;;31.38;29.17;;;24.80;97.90;;;;;;5024502;28;20203;-75
2022/06/22 12:44:41;;;;;;;30.80;28.85;;;25.10;98.60;;;;;;5047995;28;20045;-75
2022/06/22 12:47:40;;;;;;;31.48;29.38;;;25.80;97.10;;;;;;5027517;28;20081;-74
2022/06/22 12:50:44;;;;;;;31.15;28.92;;;25.30;96.80;;;;;;5030117;28;20144;-75
2022/06/22 12:53:31;;;;;;;31.30;29.17;;;25.60;97.30;;;;;;5036785;28;20052;-75
2022/06/22 12:56:30;;;;;;;30.80;28.88;;;25.40;97.20;;;;;;5045975;28;20045;-74
2022/06/22 12:59:15;;;;;;;29.17;27.48;;;25.70;98.30;;;;;;5015591;22;20111;-76
2022/06/22 13:01:43;;;;;;;29.83;28.02;;;25.40;98.00;;;;;;5023725;28;20597;-74
2022/06/22 13:04:24;;;;;;;31.10;28.92;;;25.30;97.00;;;;;;5033535;28;20277;-73
2022/06/22 13:06:57;;;;;;;29.33;27.58;;;25.60;97.60;;;;;;5009100;28;20588;-76
2022/06/22 13:09:24;;;;;;;29.77;28.08;;;26.50;97.10;;;;;;5023958;28;20351;-75
2022/06/22 13:11:52;;;;;;;30.35;28.40;;;27.10;95.50;;;;;;5018861;28;20049;-75
2022/06/22 13:14:31;;;;;;;29.42;27.30;;;26.20;95.40;;;;;;5002643;28;20062;-75
2022/06/22 13:17:16;;;;;;;29.95;28.15;;;25.10;94.90;;;;;;4996939;28;20065;-76
2022/06/22 13:20:11;;;;;;;30.52;28.63;;;25.40;95.50;;;;;;4983476;28;20042;-75
2022/06/22 13:22:50;;;;;;;29.90;28.00;;;25.90;95.00;;;;;;4992688;28;20128;-76
2022/06/22 13:25:42;;;;;;;31.13;29.17;;;25.60;94.80;;;;;;5014117;28;20045;-76
2022/06/22 13:28:18;;;;;;;31.10;29.30;;;25.90;95.10;;;;;;5002435;28;20046;-74
2022/06/22 13:30:55;;;;;;;30.90;28.83;;;26.20;93.80;;;;;;4999355;28;20042;-72
2022/06/22 13:33:40;;;;;;;29.63;27.65;;;26.60;95.40;;;;;;5008474;28;20510;-75
2022/06/22 13:36:14;;;;;;;30.20;28.35;;;27.00;94.40;;;;;;5003475;28;20466;-76
2022/06/22 13:38:59;;;;;;;29.30;27.30;;;26.90;94.20;;;;;;5000198;28;20056;-75
2022/06/22 13:41:54;;;;;;;29.27;27.38;;;27.10;94.40;;;;;;4998266;28;20046;-74
2022/06/22 13:44:37;;;;;;;30.80;28.90;;;27.00;94.50;;;;;;4984678;28;20045;-73
2022/06/22 13:47:28;;;;;;;29.80;27.83;;;26.10;93.80;;;;;;4983601;28;20133;-74
2022/06/22 13:52:54;;;;;;;30.23;28.42;;;27.10;92.20;;;;;;4989329;28;20343;-75
2022/06/22 13:55:53;;;;;;;30.48;28.67;;;26.80;94.50;;;;;;5008999;28;20049;-73
2022/06/22 13:58:38;;;;;;;31.00;28.80;;;26.50;95.60;;;;;;5032072;28;20064;-72
2022/06/22 14:01:19;;;;;;;30.23;28.33;;;26.70;95.70;;;;;;5001916;28;20457;-75
2022/06/22 14:04:06;;;;;;;29.60;27.85;;;26.60;94.50;;;;;;5012648;28;20140;-74
2022/06/22 14:06:38;;;;;;;30.20;28.40;;;26.80;94.40;;;;;;4990901;28;20344;-73